sensor_id;sensor_type;location;lat;lon;timestamp;P1;durP1;ratioP1;P2;durP2;ratioP2
58250;SDS011;51449;51.676;5.812;2024-01-25T00:01:02;11.67;;;5.97;;
58250;SDS011;51449;51.676;5.812;2024-01-25T00:03:24;17.10;;;5.77;;
58250;SDS011;51449;51.676;5.812;2024-01-25T00:05:47;19.67;;;5.30;;
58250;SDS011;51449;51.676;5.812;2024-01-25T00:08:09;21.03;;;5.13;;
58250;SDS011;51449;51.676;5.812;2024-01-25T00:10:31;15.30;;;5.27;;
58250;SDS011;51449;51.676;5.812;2024-01-25T00:12:53;9.60;;;4.00;;
58250;SDS011;51449;51.676;5.812;2024-01-25T00:15:15;16.40;;;7.90;;
58250;SDS011;51449;51.676;5.812;2024-01-25T00:17:36;8.77;;;6.93;;
58250;SDS011;51449;51.676;5.812;2024-01-25T00:19:58;16.70;;;7.77;;
58250;SDS011;51449;51.676;5.812;2024-01-25T00:22:20;13.37;;;6.57;;
58250;SDS011;51449;51.676;5.812;2024-01-25T00:24:42;15.37;;;9.07;;
58250;SDS011;51449;51.676;5.812;2024-01-25T00:27:05;14.40;;;6.40;;
58250;SDS011;51449;51.676;5.812;2024-01-25T00:29:26;26.10;;;9.20;;
58250;SDS011;51449;51.676;5.812;2024-01-25T00:31:48;19.00;;;9.37;;
58250;SDS011;51449;51.676;5.812;2024-01-25T00:34:10;16.67;;;8.67;;
58250;SDS011;51449;51.676;5.812;2024-01-25T00:36:33;17.80;;;9.90;;
58250;SDS011;51449;51.676;5.812;2024-01-25T00:38:55;11.83;;;10.77;;
58250;SDS011;51449;51.676;5.812;2024-01-25T00:41:17;23.40;;;10.50;;
58250;SDS011;51449;51.676;5.812;2024-01-25T00:43:40;18.30;;;11.60;;
58250;SDS011;51449;51.676;5.812;2024-01-25T00:46:02;16.50;;;8.83;;
58250;SDS011;51449;51.676;5.812;2024-01-25T00:48:25;16.37;;;10.10;;
58250;SDS011;51449;51.676;5.812;2024-01-25T00:50:47;17.40;;;7.10;;
58250;SDS011;51449;51.676;5.812;2024-01-25T00:53:09;13.30;;;9.17;;
58250;SDS011;51449;51.676;5.812;2024-01-25T00:55:32;7.67;;;6.87;;
58250;SDS011;51449;51.676;5.812;2024-01-25T00:57:54;12.17;;;7.73;;
58250;SDS011;51449;51.676;5.812;2024-01-25T01:00:16;14.00;;;8.53;;
58250;SDS011;51449;51.676;5.812;2024-01-25T01:02:40;17.30;;;7.57;;
58250;SDS011;51449;51.676;5.812;2024-01-25T01:05:06;14.73;;;7.23;;
58250;SDS011;51449;51.676;5.812;2024-01-25T01:07:29;27.40;;;9.65;;
58250;SDS011;51449;51.676;5.812;2024-01-25T01:09:51;10.50;;;5.83;;
58250;SDS011;51449;51.676;5.812;2024-01-25T01:12:13;13.93;;;6.10;;
58250;SDS011;51449;51.676;5.812;2024-01-25T01:14:35;8.20;;;5.60;;
58250;SDS011;51449;51.676;5.812;2024-01-25T01:16:57;17.73;;;7.70;;
58250;SDS011;51449;51.676;5.812;2024-01-25T01:19:18;14.27;;;6.23;;
58250;SDS011;51449;51.676;5.812;2024-01-25T01:21:40;22.93;;;6.47;;
58250;SDS011;51449;51.676;5.812;2024-01-25T01:26:27;12.10;;;6.00;;
58250;SDS011;51449;51.676;5.812;2024-01-25T01:28:49;13.30;;;5.47;;
58250;SDS011;51449;51.676;5.812;2024-01-25T01:31:10;10.50;;;3.70;;
58250;SDS011;51449;51.676;5.812;2024-01-25T01:33:32;11.30;;;3.17;;
58250;SDS011;51449;51.676;5.812;2024-01-25T01:35:54;12.10;;;4.20;;
58250;SDS011;51449;51.676;5.812;2024-01-25T01:38:16;12.80;;;3.73;;
58250;SDS011;51449;51.676;5.812;2024-01-25T01:40:38;8.40;;;3.50;;
58250;SDS011;51449;51.676;5.812;2024-01-25T01:43:00;26.20;;;4.90;;
58250;SDS011;51449;51.676;5.812;2024-01-25T01:45:23;13.20;;;4.73;;
58250;SDS011;51449;51.676;5.812;2024-01-25T01:47:45;14.07;;;3.53;;
58250;SDS011;51449;51.676;5.812;2024-01-25T01:50:07;14.60;;;4.93;;
58250;SDS011;51449;51.676;5.812;2024-01-25T01:52:31;8.40;;;3.95;;
58250;SDS011;51449;51.676;5.812;2024-01-25T01:54:53;19.33;;;3.57;;
58250;SDS011;51449;51.676;5.812;2024-01-25T01:57:16;12.97;;;2.90;;
58250;SDS011;51449;51.676;5.812;2024-01-25T01:59:38;20.73;;;4.90;;
58250;SDS011;51449;51.676;5.812;2024-01-25T02:01:59;8.23;;;3.03;;
58250;SDS011;51449;51.676;5.812;2024-01-25T02:04:21;19.77;;;4.70;;
58250;SDS011;51449;51.676;5.812;2024-01-25T02:06:43;13.17;;;2.53;;
58250;SDS011;51449;51.676;5.812;2024-01-25T02:09:07;12.75;;;5.07;;
58250;SDS011;51449;51.676;5.812;2024-01-25T02:11:29;13.07;;;4.87;;
58250;SDS011;51449;51.676;5.812;2024-01-25T02:13:51;17.90;;;3.67;;
58250;SDS011;51449;51.676;5.812;2024-01-25T02:16:13;8.20;;;3.57;;
58250;SDS011;51449;51.676;5.812;2024-01-25T02:18:36;11.15;;;4.03;;
58250;SDS011;51449;51.676;5.812;2024-01-25T02:20:59;10.57;;;3.87;;
58250;SDS011;51449;51.676;5.812;2024-01-25T02:23:22;14.90;;;3.13;;
58250;SDS011;51449;51.676;5.812;2024-01-25T02:25:44;20.23;;;3.53;;
58250;SDS011;51449;51.676;5.812;2024-01-25T02:28:06;4.73;;;2.40;;
58250;SDS011;51449;51.676;5.812;2024-01-25T02:30:28;15.30;;;3.20;;
58250;SDS011;51449;51.676;5.812;2024-01-25T02:32:49;12.03;;;3.23;;
58250;SDS011;51449;51.676;5.812;2024-01-25T02:35:11;15.73;;;3.23;;
58250;SDS011;51449;51.676;5.812;2024-01-25T02:37:33;12.53;;;3.10;;
58250;SDS011;51449;51.676;5.812;2024-01-25T02:39:55;16.07;;;3.80;;
58250;SDS011;51449;51.676;5.812;2024-01-25T02:42:17;10.47;;;2.70;;
58250;SDS011;51449;51.676;5.812;2024-01-25T02:44:39;7.83;;;1.97;;
58250;SDS011;51449;51.676;5.812;2024-01-25T02:47:01;6.00;;;2.27;;
58250;SDS011;51449;51.676;5.812;2024-01-25T02:49:22;17.47;;;2.87;;
58250;SDS011;51449;51.676;5.812;2024-01-25T02:51:46;17.90;;;3.55;;
58250;SDS011;51449;51.676;5.812;2024-01-25T02:54:08;8.67;;;1.90;;
58250;SDS011;51449;51.676;5.812;2024-01-25T02:56:29;16.50;;;3.53;;
58250;SDS011;51449;51.676;5.812;2024-01-25T02:58:56;14.93;;;2.70;;
58250;SDS011;51449;51.676;5.812;2024-01-25T03:01:17;17.00;;;3.03;;
58250;SDS011;51449;51.676;5.812;2024-01-25T03:03:39;11.03;;;2.63;;
58250;SDS011;51449;51.676;5.812;2024-01-25T03:06:02;13.07;;;2.97;;
58250;SDS011;51449;51.676;5.812;2024-01-25T03:08:25;18.70;;;3.13;;
58250;SDS011;51449;51.676;5.812;2024-01-25T03:10:47;8.93;;;2.03;;
58250;SDS011;51449;51.676;5.812;2024-01-25T03:13:11;6.57;;;2.47;;
58250;SDS011;51449;51.676;5.812;2024-01-25T03:15:33;12.20;;;3.07;;
58250;SDS011;51449;51.676;5.812;2024-01-25T03:17:55;19.30;;;4.37;;
58250;SDS011;51449;51.676;5.812;2024-01-25T03:20:17;8.93;;;1.80;;
58250;SDS011;51449;51.676;5.812;2024-01-25T03:22:39;9.53;;;2.03;;
58250;SDS011;51449;51.676;5.812;2024-01-25T03:25:01;17.73;;;3.63;;
58250;SDS011;51449;51.676;5.812;2024-01-25T03:27:22;13.80;;;3.43;;
58250;SDS011;51449;51.676;5.812;2024-01-25T03:29:44;10.53;;;2.33;;
58250;SDS011;51449;51.676;5.812;2024-01-25T03:32:06;12.73;;;3.20;;
58250;SDS011;51449;51.676;5.812;2024-01-25T03:34:28;9.43;;;2.30;;
58250;SDS011;51449;51.676;5.812;2024-01-25T03:36:50;11.70;;;2.57;;
58250;SDS011;51449;51.676;5.812;2024-01-25T03:41:36;14.37;;;3.00;;
58250;SDS011;51449;51.676;5.812;2024-01-25T03:43:57;16.53;;;3.27;;
58250;SDS011;51449;51.676;5.812;2024-01-25T03:46:19;7.37;;;2.50;;
58250;SDS011;51449;51.676;5.812;2024-01-25T03:48:41;11.97;;;3.10;;
58250;SDS011;51449;51.676;5.812;2024-01-25T03:51:03;18.80;;;2.67;;
58250;SDS011;51449;51.676;5.812;2024-01-25T03:53:25;15.37;;;2.83;;
58250;SDS011;51449;51.676;5.812;2024-01-25T03:55:47;5.70;;;2.20;;
58250;SDS011;51449;51.676;5.812;2024-01-25T04:00:33;13.57;;;2.33;;
58250;SDS011;51449;51.676;5.812;2024-01-25T04:02:56;12.27;;;2.87;;
58250;SDS011;51449;51.676;5.812;2024-01-25T04:05:18;14.43;;;2.43;;
58250;SDS011;51449;51.676;5.812;2024-01-25T04:07:40;16.87;;;4.53;;
58250;SDS011;51449;51.676;5.812;2024-01-25T04:10:01;19.93;;;3.20;;
58250;SDS011;51449;51.676;5.812;2024-01-25T04:12:23;13.70;;;3.07;;
58250;SDS011;51449;51.676;5.812;2024-01-25T04:14:46;11.00;;;2.23;;
58250;SDS011;51449;51.676;5.812;2024-01-25T04:17:08;12.80;;;2.97;;
58250;SDS011;51449;51.676;5.812;2024-01-25T04:19:30;14.80;;;3.00;;
58250;SDS011;51449;51.676;5.812;2024-01-25T04:21:52;10.33;;;3.13;;
58250;SDS011;51449;51.676;5.812;2024-01-25T04:24:13;8.00;;;2.23;;
58250;SDS011;51449;51.676;5.812;2024-01-25T04:26:35;14.83;;;2.77;;
58250;SDS011;51449;51.676;5.812;2024-01-25T04:28:57;15.33;;;2.83;;
58250;SDS011;51449;51.676;5.812;2024-01-25T04:31:19;12.13;;;3.30;;
58250;SDS011;51449;51.676;5.812;2024-01-25T04:33:41;16.80;;;2.93;;
58250;SDS011;51449;51.676;5.812;2024-01-25T04:36:08;13.30;;;2.47;;
58250;SDS011;51449;51.676;5.812;2024-01-25T04:38:30;12.20;;;3.00;;
58250;SDS011;51449;51.676;5.812;2024-01-25T04:40:52;12.30;;;2.33;;
58250;SDS011;51449;51.676;5.812;2024-01-25T04:43:14;7.07;;;2.07;;
58250;SDS011;51449;51.676;5.812;2024-01-25T04:45:36;8.50;;;2.27;;
58250;SDS011;51449;51.676;5.812;2024-01-25T04:47:58;12.83;;;2.13;;
58250;SDS011;51449;51.676;5.812;2024-01-25T04:50:20;11.17;;;2.43;;
58250;SDS011;51449;51.676;5.812;2024-01-25T04:52:42;23.33;;;2.60;;
58250;SDS011;51449;51.676;5.812;2024-01-25T04:55:04;7.63;;;2.13;;
58250;SDS011;51449;51.676;5.812;2024-01-25T04:57:27;6.07;;;1.73;;
58250;SDS011;51449;51.676;5.812;2024-01-25T04:59:48;12.00;;;2.83;;
58250;SDS011;51449;51.676;5.812;2024-01-25T05:02:10;11.23;;;2.50;;
58250;SDS011;51449;51.676;5.812;2024-01-25T05:04:32;18.20;;;2.60;;
58250;SDS011;51449;51.676;5.812;2024-01-25T05:06:56;8.17;;;2.50;;
58250;SDS011;51449;51.676;5.812;2024-01-25T05:09:18;9.93;;;1.77;;
58250;SDS011;51449;51.676;5.812;2024-01-25T05:11:40;16.50;;;3.30;;
58250;SDS011;51449;51.676;5.812;2024-01-25T05:14:01;11.77;;;2.00;;
58250;SDS011;51449;51.676;5.812;2024-01-25T05:16:23;9.20;;;2.97;;
58250;SDS011;51449;51.676;5.812;2024-01-25T05:18:45;4.53;;;2.17;;
58250;SDS011;51449;51.676;5.812;2024-01-25T05:21:07;22.77;;;4.07;;
58250;SDS011;51449;51.676;5.812;2024-01-25T05:23:29;27.17;;;7.93;;
58250;SDS011;51449;51.676;5.812;2024-01-25T05:25:51;15.50;;;2.20;;
58250;SDS011;51449;51.676;5.812;2024-01-25T05:28:13;19.57;;;2.20;;
58250;SDS011;51449;51.676;5.812;2024-01-25T05:30:35;8.57;;;2.03;;
58250;SDS011;51449;51.676;5.812;2024-01-25T05:32:57;16.07;;;2.20;;
58250;SDS011;51449;51.676;5.812;2024-01-25T05:35:19;9.53;;;3.03;;
58250;SDS011;51449;51.676;5.812;2024-01-25T05:37:42;11.77;;;2.17;;
58250;SDS011;51449;51.676;5.812;2024-01-25T05:40:04;15.50;;;3.07;;
58250;SDS011;51449;51.676;5.812;2024-01-25T05:42:27;14.17;;;3.40;;
58250;SDS011;51449;51.676;5.812;2024-01-25T05:44:49;12.33;;;3.00;;
58250;SDS011;51449;51.676;5.812;2024-01-25T05:47:11;12.77;;;3.73;;
58250;SDS011;51449;51.676;5.812;2024-01-25T05:49:33;12.73;;;2.30;;
58250;SDS011;51449;51.676;5.812;2024-01-25T05:51:55;14.60;;;3.10;;
58250;SDS011;51449;51.676;5.812;2024-01-25T05:54:16;15.30;;;2.30;;
58250;SDS011;51449;51.676;5.812;2024-01-25T05:56:38;18.07;;;3.50;;
58250;SDS011;51449;51.676;5.812;2024-01-25T05:59:00;14.17;;;2.67;;
58250;SDS011;51449;51.676;5.812;2024-01-25T06:01:22;18.97;;;3.83;;
58250;SDS011;51449;51.676;5.812;2024-01-25T06:03:44;7.13;;;1.93;;
58250;SDS011;51449;51.676;5.812;2024-01-25T06:06:06;7.43;;;1.93;;
58250;SDS011;51449;51.676;5.812;2024-01-25T06:08:29;17.70;;;3.95;;
58250;SDS011;51449;51.676;5.812;2024-01-25T06:10:51;16.97;;;4.83;;
58250;SDS011;51449;51.676;5.812;2024-01-25T06:13:13;16.40;;;3.03;;
58250;SDS011;51449;51.676;5.812;2024-01-25T06:15:36;14.87;;;2.87;;
58250;SDS011;51449;51.676;5.812;2024-01-25T06:17:58;14.80;;;3.17;;
58250;SDS011;51449;51.676;5.812;2024-01-25T06:20:20;8.67;;;1.90;;
58250;SDS011;51449;51.676;5.812;2024-01-25T06:22:42;16.50;;;3.93;;
58250;SDS011;51449;51.676;5.812;2024-01-25T06:25:04;15.53;;;2.77;;
58250;SDS011;51449;51.676;5.812;2024-01-25T06:27:29;15.40;;;4.03;;
58250;SDS011;51449;51.676;5.812;2024-01-25T06:29:51;9.53;;;2.63;;
58250;SDS011;51449;51.676;5.812;2024-01-25T06:32:12;18.87;;;3.17;;
58250;SDS011;51449;51.676;5.812;2024-01-25T06:34:46;11.68;;;3.90;;
58250;SDS011;51449;51.676;5.812;2024-01-25T06:37:08;9.30;;;2.20;;
58250;SDS011;51449;51.676;5.812;2024-01-25T06:39:34;18.17;;;3.20;;
58250;SDS011;51449;51.676;5.812;2024-01-25T06:41:56;13.97;;;3.50;;
58250;SDS011;51449;51.676;5.812;2024-01-25T06:44:18;13.00;;;2.93;;
58250;SDS011;51449;51.676;5.812;2024-01-25T06:46:40;17.60;;;3.10;;
58250;SDS011;51449;51.676;5.812;2024-01-25T06:49:02;11.43;;;2.43;;
58250;SDS011;51449;51.676;5.812;2024-01-25T06:51:24;14.43;;;3.03;;
58250;SDS011;51449;51.676;5.812;2024-01-25T06:53:46;12.00;;;2.07;;
58250;SDS011;51449;51.676;5.812;2024-01-25T06:56:08;13.63;;;2.57;;
58250;SDS011;51449;51.676;5.812;2024-01-25T06:58:30;9.97;;;2.73;;
58250;SDS011;51449;51.676;5.812;2024-01-25T07:00:52;6.57;;;2.80;;
58250;SDS011;51449;51.676;5.812;2024-01-25T07:03:15;24.47;;;2.97;;
58250;SDS011;51449;51.676;5.812;2024-01-25T07:05:37;14.20;;;2.70;;
58250;SDS011;51449;51.676;5.812;2024-01-25T07:07:59;10.97;;;1.87;;
58250;SDS011;51449;51.676;5.812;2024-01-25T07:10:21;20.90;;;2.43;;
58250;SDS011;51449;51.676;5.812;2024-01-25T07:12:44;9.90;;;2.77;;
58250;SDS011;51449;51.676;5.812;2024-01-25T07:15:06;29.17;;;3.50;;
58250;SDS011;51449;51.676;5.812;2024-01-25T07:17:28;12.93;;;2.53;;
58250;SDS011;51449;51.676;5.812;2024-01-25T07:19:50;12.03;;;2.57;;
58250;SDS011;51449;51.676;5.812;2024-01-25T07:22:12;9.37;;;2.40;;
58250;SDS011;51449;51.676;5.812;2024-01-25T07:24:35;24.63;;;4.05;;
58250;SDS011;51449;51.676;5.812;2024-01-25T07:26:57;13.00;;;3.83;;
58250;SDS011;51449;51.676;5.812;2024-01-25T07:29:19;14.17;;;3.50;;
58250;SDS011;51449;51.676;5.812;2024-01-25T07:31:41;14.57;;;2.43;;
58250;SDS011;51449;51.676;5.812;2024-01-25T07:34:02;16.90;;;3.93;;
58250;SDS011;51449;51.676;5.812;2024-01-25T07:36:25;8.77;;;2.57;;
58250;SDS011;51449;51.676;5.812;2024-01-25T07:38:47;19.77;;;3.53;;
58250;SDS011;51449;51.676;5.812;2024-01-25T07:41:09;11.23;;;2.40;;
58250;SDS011;51449;51.676;5.812;2024-01-25T07:43:31;21.63;;;3.67;;
58250;SDS011;51449;51.676;5.812;2024-01-25T07:45:53;6.70;;;1.97;;
58250;SDS011;51449;51.676;5.812;2024-01-25T07:48:15;12.10;;;3.17;;
58250;SDS011;51449;51.676;5.812;2024-01-25T07:50:37;8.17;;;3.43;;
58250;SDS011;51449;51.676;5.812;2024-01-25T07:52:59;14.33;;;4.37;;
58250;SDS011;51449;51.676;5.812;2024-01-25T07:55:22;12.73;;;4.63;;
58250;SDS011;51449;51.676;5.812;2024-01-25T07:57:44;11.30;;;3.13;;
58250;SDS011;51449;51.676;5.812;2024-01-25T08:00:06;9.80;;;3.40;;
58250;SDS011;51449;51.676;5.812;2024-01-25T08:02:30;10.82;;;2.95;;
58250;SDS011;51449;51.676;5.812;2024-01-25T08:04:52;10.20;;;3.10;;
58250;SDS011;51449;51.676;5.812;2024-01-25T08:07:14;5.80;;;2.13;;
58250;SDS011;51449;51.676;5.812;2024-01-25T08:09:36;16.00;;;3.53;;
58250;SDS011;51449;51.676;5.812;2024-01-25T08:11:58;17.67;;;4.37;;
58250;SDS011;51449;51.676;5.812;2024-01-25T08:14:20;14.50;;;3.50;;
58250;SDS011;51449;51.676;5.812;2024-01-25T08:16:41;9.20;;;3.03;;
58250;SDS011;51449;51.676;5.812;2024-01-25T08:19:03;16.00;;;3.33;;
58250;SDS011;51449;51.676;5.812;2024-01-25T08:21:26;9.63;;;2.37;;
58250;SDS011;51449;51.676;5.812;2024-01-25T08:23:48;10.83;;;3.07;;
58250;SDS011;51449;51.676;5.812;2024-01-25T08:26:10;13.13;;;3.00;;
58250;SDS011;51449;51.676;5.812;2024-01-25T08:28:33;6.90;;;3.45;;
58250;SDS011;51449;51.676;5.812;2024-01-25T08:30:55;9.37;;;2.53;;
58250;SDS011;51449;51.676;5.812;2024-01-25T08:33:17;11.70;;;3.53;;
58250;SDS011;51449;51.676;5.812;2024-01-25T08:35:39;12.77;;;3.40;;
58250;SDS011;51449;51.676;5.812;2024-01-25T08:38:02;9.60;;;3.70;;
58250;SDS011;51449;51.676;5.812;2024-01-25T08:40:24;15.47;;;3.93;;
58250;SDS011;51449;51.676;5.812;2024-01-25T08:42:49;12.73;;;3.37;;
58250;SDS011;51449;51.676;5.812;2024-01-25T08:45:11;12.60;;;3.73;;
58250;SDS011;51449;51.676;5.812;2024-01-25T08:47:36;5.40;;;2.50;;
58250;SDS011;51449;51.676;5.812;2024-01-25T08:49:58;13.67;;;3.07;;
58250;SDS011;51449;51.676;5.812;2024-01-25T08:52:20;14.73;;;3.73;;
58250;SDS011;51449;51.676;5.812;2024-01-25T08:54:42;17.27;;;3.37;;
58250;SDS011;51449;51.676;5.812;2024-01-25T08:57:05;10.47;;;4.00;;
58250;SDS011;51449;51.676;5.812;2024-01-25T08:59:27;17.23;;;3.80;;
58250;SDS011;51449;51.676;5.812;2024-01-25T09:01:51;11.43;;;3.85;;
58250;SDS011;51449;51.676;5.812;2024-01-25T09:04:13;16.60;;;5.03;;
58250;SDS011;51449;51.676;5.812;2024-01-25T09:06:34;15.47;;;3.37;;
58250;SDS011;51449;51.676;5.812;2024-01-25T09:08:56;18.70;;;4.43;;
58250;SDS011;51449;51.676;5.812;2024-01-25T09:11:18;21.03;;;3.70;;
58250;SDS011;51449;51.676;5.812;2024-01-25T09:13:40;7.17;;;3.40;;
58250;SDS011;51449;51.676;5.812;2024-01-25T09:16:07;15.57;;;3.97;;
58250;SDS011;51449;51.676;5.812;2024-01-25T09:18:29;13.60;;;3.93;;
58250;SDS011;51449;51.676;5.812;2024-01-25T09:20:51;8.07;;;3.67;;
58250;SDS011;51449;51.676;5.812;2024-01-25T09:23:13;12.50;;;3.67;;
58250;SDS011;51449;51.676;5.812;2024-01-25T09:25:39;11.07;;;4.43;;
58250;SDS011;51449;51.676;5.812;2024-01-25T09:28:01;9.43;;;4.27;;
58250;SDS011;51449;51.676;5.812;2024-01-25T09:30:23;12.20;;;5.20;;
58250;SDS011;51449;51.676;5.812;2024-01-25T09:32:45;15.13;;;4.40;;
58250;SDS011;51449;51.676;5.812;2024-01-25T09:35:08;15.65;;;6.30;;
58250;SDS011;51449;51.676;5.812;2024-01-25T09:37:31;14.37;;;5.03;;
58250;SDS011;51449;51.676;5.812;2024-01-25T09:39:53;15.63;;;7.03;;
58250;SDS011;51449;51.676;5.812;2024-01-25T09:42:15;14.03;;;6.00;;
58250;SDS011;51449;51.676;5.812;2024-01-25T09:44:37;13.90;;;7.83;;
58250;SDS011;51449;51.676;5.812;2024-01-25T09:47:04;18.15;;;9.60;;
58250;SDS011;51449;51.676;5.812;2024-01-25T09:49:28;15.37;;;8.83;;
58250;SDS011;51449;51.676;5.812;2024-01-25T09:51:51;23.53;;;9.80;;
58250;SDS011;51449;51.676;5.812;2024-01-25T09:54:14;21.47;;;11.53;;
58250;SDS011;51449;51.676;5.812;2024-01-25T09:56:37;18.90;;;12.98;;
58250;SDS011;51449;51.676;5.812;2024-01-25T09:59:02;14.03;;;11.67;;
58250;SDS011;51449;51.676;5.812;2024-01-25T10:01:26;19.63;;;11.25;;
58250;SDS011;51449;51.676;5.812;2024-01-25T10:03:49;26.40;;;11.03;;
58250;SDS011;51449;51.676;5.812;2024-01-25T10:06:11;21.40;;;11.70;;
58250;SDS011;51449;51.676;5.812;2024-01-25T10:10:58;18.03;;;10.47;;
58250;SDS011;51449;51.676;5.812;2024-01-25T10:13:20;17.87;;;10.17;;
58250;SDS011;51449;51.676;5.812;2024-01-25T10:15:42;19.93;;;9.73;;
58250;SDS011;51449;51.676;5.812;2024-01-25T10:18:05;16.58;;;10.13;;
58250;SDS011;51449;51.676;5.812;2024-01-25T10:20:49;18.73;;;12.53;;
58250;SDS011;51449;51.676;5.812;2024-01-25T10:23:11;19.07;;;12.20;;
58250;SDS011;51449;51.676;5.812;2024-01-25T10:25:36;18.10;;;12.47;;
58250;SDS011;51449;51.676;5.812;2024-01-25T10:27:59;25.33;;;15.03;;
58250;SDS011;51449;51.676;5.812;2024-01-25T10:30:21;17.13;;;15.20;;
58250;SDS011;51449;51.676;5.812;2024-01-25T10:32:45;25.02;;;15.63;;
58250;SDS011;51449;51.676;5.812;2024-01-25T10:35:08;21.93;;;16.07;;
58250;SDS011;51449;51.676;5.812;2024-01-25T10:37:31;28.33;;;25.83;;
58250;SDS011;51449;51.676;5.812;2024-01-25T10:39:54;25.80;;;18.13;;
58250;SDS011;51449;51.676;5.812;2024-01-25T10:42:20;26.70;;;24.60;;
58250;SDS011;51449;51.676;5.812;2024-01-25T10:44:42;22.17;;;15.83;;
58250;SDS011;51449;51.676;5.812;2024-01-25T10:47:07;19.53;;;16.40;;
58250;SDS011;51449;51.676;5.812;2024-01-25T10:49:29;19.83;;;18.33;;
58250;SDS011;51449;51.676;5.812;2024-01-25T10:51:54;26.43;;;23.83;;
58250;SDS011;51449;51.676;5.812;2024-01-25T10:54:16;46.70;;;44.03;;
58250;SDS011;51449;51.676;5.812;2024-01-25T10:56:40;23.30;;;18.83;;
58250;SDS011;51449;51.676;5.812;2024-01-25T10:59:03;28.53;;;25.27;;
58250;SDS011;51449;51.676;5.812;2024-01-25T11:01:29;24.67;;;22.07;;
58250;SDS011;51449;51.676;5.812;2024-01-25T11:03:51;27.57;;;25.17;;
58250;SDS011;51449;51.676;5.812;2024-01-25T11:06:13;29.00;;;26.33;;
58250;SDS011;51449;51.676;5.812;2024-01-25T11:08:36;39.93;;;36.97;;
58250;SDS011;51449;51.676;5.812;2024-01-25T11:13:26;32.40;;;29.58;;
58250;SDS011;51449;51.676;5.812;2024-01-25T11:15:48;37.35;;;33.88;;
58250;SDS011;51449;51.676;5.812;2024-01-25T11:18:10;43.13;;;37.57;;
58250;SDS011;51449;51.676;5.812;2024-01-25T11:20:36;31.40;;;28.87;;
58250;SDS011;51449;51.676;5.812;2024-01-25T11:23:02;33.33;;;24.47;;
58250;SDS011;51449;51.676;5.812;2024-01-25T11:25:27;28.97;;;25.90;;
58250;SDS011;51449;51.676;5.812;2024-01-25T11:27:53;40.23;;;36.90;;
58250;SDS011;51449;51.676;5.812;2024-01-25T11:30:17;32.80;;;29.43;;
58250;SDS011;51449;51.676;5.812;2024-01-25T11:32:41;54.23;;;51.23;;
58250;SDS011;51449;51.676;5.812;2024-01-25T11:35:04;42.27;;;38.70;;
58250;SDS011;51449;51.676;5.812;2024-01-25T11:37:26;43.60;;;40.00;;
58250;SDS011;51449;51.676;5.812;2024-01-25T11:39:49;39.27;;;35.90;;
58250;SDS011;51449;51.676;5.812;2024-01-25T11:42:11;54.87;;;50.97;;
58250;SDS011;51449;51.676;5.812;2024-01-25T11:44:33;37.90;;;33.93;;
58250;SDS011;51449;51.676;5.812;2024-01-25T11:46:55;43.53;;;39.97;;
58250;SDS011;51449;51.676;5.812;2024-01-25T11:49:17;58.03;;;53.73;;
58250;SDS011;51449;51.676;5.812;2024-01-25T11:51:39;48.43;;;44.17;;
58250;SDS011;51449;51.676;5.812;2024-01-25T11:54:01;59.10;;;55.57;;
58250;SDS011;51449;51.676;5.812;2024-01-25T11:56:28;50.57;;;46.90;;
58250;SDS011;51449;51.676;5.812;2024-01-25T11:58:54;52.73;;;48.60;;
58250;SDS011;51449;51.676;5.812;2024-01-25T12:01:18;43.20;;;40.00;;
58250;SDS011;51449;51.676;5.812;2024-01-25T12:03:42;45.65;;;42.38;;
58250;SDS011;51449;51.676;5.812;2024-01-25T12:06:04;54.23;;;50.50;;
58250;SDS011;51449;51.676;5.812;2024-01-25T12:08:27;57.88;;;53.75;;
58250;SDS011;51449;51.676;5.812;2024-01-25T12:10:49;60.43;;;56.03;;
58250;SDS011;51449;51.676;5.812;2024-01-25T12:13:12;53.20;;;49.50;;
58250;SDS011;51449;51.676;5.812;2024-01-25T12:15:34;54.47;;;49.57;;
58250;SDS011;51449;51.676;5.812;2024-01-25T12:17:57;44.57;;;40.50;;
58250;SDS011;51449;51.676;5.812;2024-01-25T12:20:20;57.57;;;53.57;;
58250;SDS011;51449;51.676;5.812;2024-01-25T12:22:42;49.40;;;45.57;;
58250;SDS011;51449;51.676;5.812;2024-01-25T12:25:09;70.63;;;66.47;;
58250;SDS011;51449;51.676;5.812;2024-01-25T12:27:32;57.10;;;53.50;;
58250;SDS011;51449;51.676;5.812;2024-01-25T12:29:54;71.03;;;66.23;;
58250;SDS011;51449;51.676;5.812;2024-01-25T12:32:16;57.13;;;53.27;;
58250;SDS011;51449;51.676;5.812;2024-01-25T12:34:39;83.10;;;79.50;;
58250;SDS011;51449;51.676;5.812;2024-01-25T12:37:04;46.95;;;43.33;;
58250;SDS011;51449;51.676;5.812;2024-01-25T12:39:27;51.22;;;48.00;;
58250;SDS011;51449;51.676;5.812;2024-01-25T12:41:48;48.47;;;44.37;;
58250;SDS011;51449;51.676;5.812;2024-01-25T12:44:12;44.95;;;41.70;;
58250;SDS011;51449;51.676;5.812;2024-01-25T12:46:34;40.70;;;37.37;;
58250;SDS011;51449;51.676;5.812;2024-01-25T12:48:56;50.93;;;46.33;;
58250;SDS011;51449;51.676;5.812;2024-01-25T12:51:20;51.38;;;46.60;;
58250;SDS011;51449;51.676;5.812;2024-01-25T12:53:42;45.43;;;41.00;;
58250;SDS011;51449;51.676;5.812;2024-01-25T12:56:04;46.23;;;41.30;;
58250;SDS011;51449;51.676;5.812;2024-01-25T12:58:27;48.23;;;43.33;;
58250;SDS011;51449;51.676;5.812;2024-01-25T13:00:48;63.87;;;59.53;;
58250;SDS011;51449;51.676;5.812;2024-01-25T13:03:11;57.10;;;52.03;;
58250;SDS011;51449;51.676;5.812;2024-01-25T13:05:34;56.93;;;51.50;;
58250;SDS011;51449;51.676;5.812;2024-01-25T13:07:56;53.43;;;48.83;;
58250;SDS011;51449;51.676;5.812;2024-01-25T13:10:18;47.80;;;43.47;;
58250;SDS011;51449;51.676;5.812;2024-01-25T13:12:40;53.47;;;49.60;;
58250;SDS011;51449;51.676;5.812;2024-01-25T13:15:02;45.43;;;40.87;;
58250;SDS011;51449;51.676;5.812;2024-01-25T13:17:26;45.10;;;38.67;;
58250;SDS011;51449;51.676;5.812;2024-01-25T13:19:49;39.83;;;35.93;;
58250;SDS011;51449;51.676;5.812;2024-01-25T13:22:11;44.80;;;37.50;;
58250;SDS011;51449;51.676;5.812;2024-01-25T13:24:33;39.70;;;33.87;;
58250;SDS011;51449;51.676;5.812;2024-01-25T13:26:55;41.43;;;33.00;;
58250;SDS011;51449;51.676;5.812;2024-01-25T13:29:17;42.77;;;38.83;;
58250;SDS011;51449;51.676;5.812;2024-01-25T13:31:39;51.70;;;47.33;;
58250;SDS011;51449;51.676;5.812;2024-01-25T13:34:02;39.27;;;31.83;;
58250;SDS011;51449;51.676;5.812;2024-01-25T13:36:24;41.60;;;37.13;;
58250;SDS011;51449;51.676;5.812;2024-01-25T13:38:46;38.07;;;34.20;;
58250;SDS011;51449;51.676;5.812;2024-01-25T13:41:08;39.53;;;35.70;;
58250;SDS011;51449;51.676;5.812;2024-01-25T13:43:30;39.43;;;35.60;;
58250;SDS011;51449;51.676;5.812;2024-01-25T13:45:51;54.93;;;50.83;;
58250;SDS011;51449;51.676;5.812;2024-01-25T13:48:13;53.10;;;49.57;;
58250;SDS011;51449;51.676;5.812;2024-01-25T13:50:36;61.70;;;57.80;;
58250;SDS011;51449;51.676;5.812;2024-01-25T13:52:58;46.20;;;42.33;;
58250;SDS011;51449;51.676;5.812;2024-01-25T13:55:19;51.70;;;46.33;;
58250;SDS011;51449;51.676;5.812;2024-01-25T13:57:42;51.67;;;47.57;;
58250;SDS011;51449;51.676;5.812;2024-01-25T14:00:04;51.47;;;47.50;;
58250;SDS011;51449;51.676;5.812;2024-01-25T14:02:26;52.77;;;48.77;;
58250;SDS011;51449;51.676;5.812;2024-01-25T14:04:48;56.77;;;53.57;;
58250;SDS011;51449;51.676;5.812;2024-01-25T14:07:10;60.17;;;55.53;;
58250;SDS011;51449;51.676;5.812;2024-01-25T14:09:32;60.23;;;55.50;;
58250;SDS011;51449;51.676;5.812;2024-01-25T14:11:55;52.00;;;48.67;;
58250;SDS011;51449;51.676;5.812;2024-01-25T14:14:16;52.50;;;48.73;;
58250;SDS011;51449;51.676;5.812;2024-01-25T14:16:38;57.13;;;52.70;;